sensor_id;sensor_type;location;lat;lon;timestamp;temperature;humidity
530;DHT22;251;48.704;9.210;2023-06-14T00:01:58;11.20;23.60
530;DHT22;251;48.704;9.210;2023-06-14T00:04:25;11.40;23.80
530;DHT22;251;48.704;9.210;2023-06-14T00:06:53;11.10;23.60
530;DHT22;251;48.704;9.210;2023-06-14T00:09:22;11.30;25.30
530;DHT22;251;48.704;9.210;2023-06-14T00:11:48;10.90;25.70
530;DHT22;251;48.704;9.210;2023-06-14T00:14:16;10.90;24.70
530;DHT22;251;48.704;9.210;2023-06-14T00:16:43;10.80;25.20
530;DHT22;251;48.704;9.210;2023-06-14T00:19:10;10.80;25.10
530;DHT22;251;48.704;9.210;2023-06-14T00:21:37;10.80;25.70
530;DHT22;251;48.704;9.210;2023-06-14T00:24:05;10.90;26.30
530;DHT22;251;48.704;9.210;2023-06-14T00:26:31;10.50;26.00
530;DHT22;251;48.704;9.210;2023-06-14T00:28:58;10.50;26.60
530;DHT22;251;48.704;9.210;2023-06-14T00:31:27;10.50;27.10
530;DHT22;251;48.704;9.210;2023-06-14T00:33:54;10.40;26.70
530;DHT22;251;48.704;9.210;2023-06-14T00:36:20;10.60;26.80
530;DHT22;251;48.704;9.210;2023-06-14T00:38:47;10.40;26.10
530;DHT22;251;48.704;9.210;2023-06-14T00:41:14;10.40;26.40
530;DHT22;251;48.704;9.210;2023-06-14T00:43:42;10.40;26.90
530;DHT22;251;48.704;9.210;2023-06-14T00:46:08;10.40;27.30
530;DHT22;251;48.704;9.210;2023-06-14T00:48:38;10.30;28.40
530;DHT22;251;48.704;9.210;2023-06-14T00:51:06;10.30;27.70
530;DHT22;251;48.704;9.210;2023-06-14T00:53:33;10.60;28.70
530;DHT22;251;48.704;9.210;2023-06-14T00:56:01;10.40;27.90
530;DHT22;251;48.704;9.210;2023-06-14T00:58:28;10.20;28.80
530;DHT22;251;48.704;9.210;2023-06-14T01:00:55;10.30;29.20
530;DHT22;251;48.704;9.210;2023-06-14T01:03:23;10.20;28.80
530;DHT22;251;48.704;9.210;2023-06-14T01:06:07;10.20;29.40
530;DHT22;251;48.704;9.210;2023-06-14T01:08:48;10.30;29.40
530;DHT22;251;48.704;9.210;2023-06-14T01:11:22;10.00;28.90
530;DHT22;251;48.704;9.210;2023-06-14T01:13:52;10.10;29.70
530;DHT22;251;48.704;9.210;2023-06-14T01:16:21;10.10;30.00
530;DHT22;251;48.704;9.210;2023-06-14T01:18:49;10.00;30.50
530;DHT22;251;48.704;9.210;2023-06-14T01:21:23;10.00;30.90
530;DHT22;251;48.704;9.210;2023-06-14T01:23:52;10.10;31.20
530;DHT22;251;48.704;9.210;2023-06-14T01:26:20;9.90;32.20
530;DHT22;251;48.704;9.210;2023-06-14T01:28:48;10.10;32.10
530;DHT22;251;48.704;9.210;2023-06-14T01:31:18;9.90;32.90
530;DHT22;251;48.704;9.210;2023-06-14T01:33:48;9.80;33.70
530;DHT22;251;48.704;9.210;2023-06-14T01:36:17;9.80;33.00
530;DHT22;251;48.704;9.210;2023-06-14T01:38:45;9.50;33.40
530;DHT22;251;48.704;9.210;2023-06-14T01:41:16;9.40;34.00
530;DHT22;251;48.704;9.210;2023-06-14T01:43:44;9.80;34.10
530;DHT22;251;48.704;9.210;2023-06-14T01:46:13;9.50;34.10
530;DHT22;251;48.704;9.210;2023-06-14T01:48:43;9.60;34.20
530;DHT22;251;48.704;9.210;2023-06-14T01:51:10;9.60;34.20
530;DHT22;251;48.704;9.210;2023-06-14T01:53:37;9.20;33.50
530;DHT22;251;48.704;9.210;2023-06-14T01:56:04;9.50;35.60
530;DHT22;251;48.704;9.210;2023-06-14T01:58:33;9.50;35.80
530;DHT22;251;48.704;9.210;2023-06-14T02:01:01;9.30;36.00
530;DHT22;251;48.704;9.210;2023-06-14T02:03:27;9.40;36.60
530;DHT22;251;48.704;9.210;2023-06-14T02:05:55;9.40;36.40
530;DHT22;251;48.704;9.210;2023-06-14T02:08:22;9.40;36.20
530;DHT22;251;48.704;9.210;2023-06-14T02:10:49;9.30;36.60
530;DHT22;251;48.704;9.210;2023-06-14T02:13:16;9.30;36.60
530;DHT22;251;48.704;9.210;2023-06-14T02:15:44;9.50;37.00
530;DHT22;251;48.704;9.210;2023-06-14T02:18:12;9.20;36.20
530;DHT22;251;48.704;9.210;2023-06-14T02:20:39;9.20;36.50
530;DHT22;251;48.704;9.210;2023-06-14T02:23:06;9.30;37.10
530;DHT22;251;48.704;9.210;2023-06-14T02:25:33;9.20;37.90
530;DHT22;251;48.704;9.210;2023-06-14T02:28:00;9.20;38.30
530;DHT22;251;48.704;9.210;2023-06-14T02:30:27;9.20;38.10
530;DHT22;251;48.704;9.210;2023-06-14T02:32:57;9.00;39.30
530;DHT22;251;48.704;9.210;2023-06-14T02:35:24;8.90;39.50
530;DHT22;251;48.704;9.210;2023-06-14T02:37:52;8.80;39.40
530;DHT22;251;48.704;9.210;2023-06-14T02:40:22;8.90;40.10
530;DHT22;251;48.704;9.210;2023-06-14T02:42:49;8.90;40.40
530;DHT22;251;48.704;9.210;2023-06-14T02:45:16;8.90;40.70
530;DHT22;251;48.704;9.210;2023-06-14T02:47:43;8.80;40.40
530;DHT22;251;48.704;9.210;2023-06-14T02:50:13;9.00;41.20
530;DHT22;251;48.704;9.210;2023-06-14T02:52:41;8.90;40.30
530;DHT22;251;48.704;9.210;2023-06-14T02:55:10;8.60;40.70
530;DHT22;251;48.704;9.210;2023-06-14T02:57:37;8.70;41.60
530;DHT22;251;48.704;9.210;2023-06-14T03:00:06;8.50;41.60
530;DHT22;251;48.704;9.210;2023-06-14T03:02:35;8.40;41.60
530;DHT22;251;48.704;9.210;2023-06-14T03:05:02;8.40;43.10
530;DHT22;251;48.704;9.210;2023-06-14T03:07:32;8.70;43.50
530;DHT22;251;48.704;9.210;2023-06-14T03:10:01;8.70;42.70
530;DHT22;251;48.704;9.210;2023-06-14T03:12:29;8.70;42.50
530;DHT22;251;48.704;9.210;2023-06-14T03:14:57;8.60;42.20
530;DHT22;251;48.704;9.210;2023-06-14T03:17:29;8.60;42.30
530;DHT22;251;48.704;9.210;2023-06-14T03:19:59;8.90;42.80
530;DHT22;251;48.704;9.210;2023-06-14T03:22:26;8.60;42.40
530;DHT22;251;48.704;9.210;2023-06-14T03:24:55;8.40;42.50
530;DHT22;251;48.704;9.210;2023-06-14T03:27:22;8.60;42.70
530;DHT22;251;48.704;9.210;2023-06-14T03:29:49;8.70;43.80
530;DHT22;251;48.704;9.210;2023-06-14T03:32:16;8.60;43.30
530;DHT22;251;48.704;9.210;2023-06-14T03:34:44;8.30;44.40
530;DHT22;251;48.704;9.210;2023-06-14T03:37:16;8.30;43.70
530;DHT22;251;48.704;9.210;2023-06-14T03:39:44;8.60;43.90
530;DHT22;251;48.704;9.210;2023-06-14T03:42:16;8.50;44.50
530;DHT22;251;48.704;9.210;2023-06-14T03:44:44;8.50;44.40
530;DHT22;251;48.704;9.210;2023-06-14T03:47:11;8.60;45.30
530;DHT22;251;48.704;9.210;2023-06-14T03:49:38;8.30;44.10
530;DHT22;251;48.704;9.210;2023-06-14T03:52:06;8.60;45.30
530;DHT22;251;48.704;9.210;2023-06-14T03:54:34;8.60;45.20
530;DHT22;251;48.704;9.210;2023-06-14T03:57:01;8.40;44.40
530;DHT22;251;48.704;9.210;2023-06-14T03:59:29;8.50;44.70
530;DHT22;251;48.704;9.210;2023-06-14T04:01:58;8.50;43.10
530;DHT22;251;48.704;9.210;2023-06-14T04:04:24;8.80;44.10
530;DHT22;251;48.704;9.210;2023-06-14T04:06:55;8.70;44.90
530;DHT22;251;48.704;9.210;2023-06-14T04:09:24;8.80;44.20
530;DHT22;251;48.704;9.210;2023-06-14T04:11:51;8.80;43.50
530;DHT22;251;48.704;9.210;2023-06-14T04:14:18;8.80;44.00
530;DHT22;251;48.704;9.210;2023-06-14T04:16:47;8.80;44.00
530;DHT22;251;48.704;9.210;2023-06-14T04:19:16;9.00;42.80
530;DHT22;251;48.704;9.210;2023-06-14T04:21:43;8.90;44.20
530;DHT22;251;48.704;9.210;2023-06-14T04:24:10;9.10;44.30
530;DHT22;251;48.704;9.210;2023-06-14T04:26:39;8.90;44.60
530;DHT22;251;48.704;9.210;2023-06-14T04:29:06;9.40;44.20
530;DHT22;251;48.704;9.210;2023-06-14T04:31:40;9.50;43.00
530;DHT22;251;48.704;9.210;2023-06-14T04:34:11;9.30;43.40
530;DHT22;251;48.704;9.210;2023-06-14T04:36:43;9.60;42.30
530;DHT22;251;48.704;9.210;2023-06-14T04:39:15;9.50;42.10
530;DHT22;251;48.704;9.210;2023-06-14T04:41:43;9.70;42.80
530;DHT22;251;48.704;9.210;2023-06-14T04:44:10;9.70;42.10
530;DHT22;251;48.704;9.210;2023-06-14T04:46:43;9.90;41.50
530;DHT22;251;48.704;9.210;2023-06-14T04:49:16;9.90;40.90
530;DHT22;251;48.704;9.210;2023-06-14T04:51:44;10.30;39.30
530;DHT22;251;48.704;9.210;2023-06-14T04:54:12;10.10;39.00
530;DHT22;251;48.704;9.210;2023-06-14T04:56:40;10.30;39.40
530;DHT22;251;48.704;9.210;2023-06-14T04:59:08;10.50;36.10
530;DHT22;251;48.704;9.210;2023-06-14T05:01:37;10.80;36.00
530;DHT22;251;48.704;9.210;2023-06-14T05:04:05;10.90;36.40
530;DHT22;251;48.704;9.210;2023-06-14T05:06:35;10.90;36.10
530;DHT22;251;48.704;9.210;2023-06-14T05:09:03;11.30;34.40
530;DHT22;251;48.704;9.210;2023-06-14T05:11:30;11.20;33.00
530;DHT22;251;48.704;9.210;2023-06-14T05:13:57;11.60;32.70
530;DHT22;251;48.704;9.210;2023-06-14T05:16:24;11.60;29.60
530;DHT22;251;48.704;9.210;2023-06-14T05:18:54;11.80;32.00
530;DHT22;251;48.704;9.210;2023-06-14T05:21:22;12.10;30.00
530;DHT22;251;48.704;9.210;2023-06-14T05:23:50;12.30;29.70
530;DHT22;251;48.704;9.210;2023-06-14T05:26:18;12.30;28.20
530;DHT22;251;48.704;9.210;2023-06-14T05:28:45;12.80;29.70
530;DHT22;251;48.704;9.210;2023-06-14T05:31:12;13.00;26.50
530;DHT22;251;48.704;9.210;2023-06-14T05:33:39;13.10;26.10
530;DHT22;251;48.704;9.210;2023-06-14T05:36:06;13.20;27.50
530;DHT22;251;48.704;9.210;2023-06-14T05:38:32;13.40;29.50
530;DHT22;251;48.704;9.210;2023-06-14T05:41:00;13.80;30.00
530;DHT22;251;48.704;9.210;2023-06-14T05:43:27;13.80;22.80
530;DHT22;251;48.704;9.210;2023-06-14T05:45:54;14.00;20.50
530;DHT22;251;48.704;9.210;2023-06-14T05:48:21;14.00;18.00
530;DHT22;251;48.704;9.210;2023-06-14T05:50:48;14.30;17.20
530;DHT22;251;48.704;9.210;2023-06-14T05:53:14;14.50;16.00
530;DHT22;251;48.704;9.210;2023-06-14T05:55:41;14.90;16.70
530;DHT22;251;48.704;9.210;2023-06-14T05:58:09;14.70;15.30
530;DHT22;251;48.704;9.210;2023-06-14T06:00:39;15.00;14.40
530;DHT22;251;48.704;9.210;2023-06-14T06:03:05;15.10;13.20
530;DHT22;251;48.704;9.210;2023-06-14T06:05:33;15.50;13.60
530;DHT22;251;48.704;9.210;2023-06-14T06:08:00;15.40;12.20
530;DHT22;251;48.704;9.210;2023-06-14T06:10:27;15.80;10.30
530;DHT22;251;48.704;9.210;2023-06-14T06:12:55;16.10;9.90
530;DHT22;251;48.704;9.210;2023-06-14T06:15:23;16.10;9.40
530;DHT22;251;48.704;9.210;2023-06-14T06:17:49;16.40;8.10
530;DHT22;251;48.704;9.210;2023-06-14T06:20:16;16.40;8.80
530;DHT22;251;48.704;9.210;2023-06-14T06:22:43;16.50;7.20
530;DHT22;251;48.704;9.210;2023-06-14T06:25:10;16.80;7.10
530;DHT22;251;48.704;9.210;2023-06-14T06:27:37;16.90;6.50
530;DHT22;251;48.704;9.210;2023-06-14T06:30:07;17.10;6.60
530;DHT22;251;48.704;9.210;2023-06-14T06:32:35;17.20;5.80
530;DHT22;251;48.704;9.210;2023-06-14T06:35:01;17.40;5.00
530;DHT22;251;48.704;9.210;2023-06-14T06:37:31;17.30;4.30
530;DHT22;251;48.704;9.210;2023-06-14T06:39:58;17.30;3.80
530;DHT22;251;48.704;9.210;2023-06-14T06:42:25;17.30;4.10
530;DHT22;251;48.704;9.210;2023-06-14T06:44:52;17.40;3.60
530;DHT22;251;48.704;9.210;2023-06-14T06:47:19;17.40;3.80
530;DHT22;251;48.704;9.210;2023-06-14T06:49:47;17.40;3.70
530;DHT22;251;48.704;9.210;2023-06-14T06:52:14;17.50;3.70
530;DHT22;251;48.704;9.210;2023-06-14T06:54:40;17.60;4.10
530;DHT22;251;48.704;9.210;2023-06-14T06:57:07;17.70;2.20
530;DHT22;251;48.704;9.210;2023-06-14T06:59:34;17.80;2.00
530;DHT22;251;48.704;9.210;2023-06-14T07:02:01;17.90;2.40
530;DHT22;251;48.704;9.210;2023-06-14T07:04:28;18.00;2.70
530;DHT22;251;48.704;9.210;2023-06-14T07:06:56;18.20;1.80
530;DHT22;251;48.704;9.210;2023-06-14T07:09:23;18.20;1.00
530;DHT22;251;48.704;9.210;2023-06-14T07:11:50;18.40;1.00
530;DHT22;251;48.704;9.210;2023-06-14T07:14:17;18.50;1.00
530;DHT22;251;48.704;9.210;2023-06-14T07:16:44;18.50;1.00
530;DHT22;251;48.704;9.210;2023-06-14T07:19:11;18.60;1.00
530;DHT22;251;48.704;9.210;2023-06-14T07:21:39;18.70;1.00
530;DHT22;251;48.704;9.210;2023-06-14T07:24:07;18.70;1.00
530;DHT22;251;48.704;9.210;2023-06-14T07:26:34;18.70;1.00
530;DHT22;251;48.704;9.210;2023-06-14T07:29:01;18.80;1.00
530;DHT22;251;48.704;9.210;2023-06-14T07:31:28;18.80;1.00
530;DHT22;251;48.704;9.210;2023-06-14T07:33:55;18.90;1.00
530;DHT22;251;48.704;9.210;2023-06-14T07:36:22;18.90;1.00
530;DHT22;251;48.704;9.210;2023-06-14T07:38:49;18.90;1.00
530;DHT22;251;48.704;9.210;2023-06-14T07:41:17;19.10;1.00
530;DHT22;251;48.704;9.210;2023-06-14T07:43:44;19.10;1.00
530;DHT22;251;48.704;9.210;2023-06-14T07:46:11;19.20;1.00
530;DHT22;251;48.704;9.210;2023-06-14T07:48:37;19.30;1.00
530;DHT22;251;48.704;9.210;2023-06-14T07:51:04;19.40;1.00
530;DHT22;251;48.704;9.210;2023-06-14T07:53:31;19.50;1.00
530;DHT22;251;48.704;9.210;2023-06-14T07:55:58;19.60;1.00
530;DHT22;251;48.704;9.210;2023-06-14T07:58:26;19.60;1.00
530;DHT22;251;48.704;9.210;2023-06-14T08:00:53;19.70;1.00
530;DHT22;251;48.704;9.210;2023-06-14T08:03:20;19.80;1.00
530;DHT22;251;48.704;9.210;2023-06-14T08:05:48;19.90;1.00
530;DHT22;251;48.704;9.210;2023-06-14T08:08:15;19.90;1.00
530;DHT22;251;48.704;9.210;2023-06-14T08:10:42;19.90;1.00
530;DHT22;251;48.704;9.210;2023-06-14T08:13:08;19.90;1.00
530;DHT22;251;48.704;9.210;2023-06-14T08:15:37;20.00;1.00
530;DHT22;251;48.704;9.210;2023-06-14T08:18:04;20.10;1.00
530;DHT22;251;48.704;9.210;2023-06-14T08:20:31;20.10;1.00
530;DHT22;251;48.704;9.210;2023-06-14T08:23:00;20.20;1.00
530;DHT22;251;48.704;9.210;2023-06-14T08:25:27;20.30;1.00
530;DHT22;251;48.704;9.210;2023-06-14T08:27:54;20.40;1.00
530;DHT22;251;48.704;9.210;2023-06-14T08:30:21;20.50;1.00
530;DHT22;251;48.704;9.210;2023-06-14T08:32:49;20.50;1.00
530;DHT22;251;48.704;9.210;2023-06-14T08:35:17;20.70;1.00
530;DHT22;251;48.704;9.210;2023-06-14T08:37:44;20.70;1.00
530;DHT22;251;48.704;9.210;2023-06-14T08:40:19;20.90;1.00
530;DHT22;251;48.704;9.210;2023-06-14T08:42:50;21.00;1.00
530;DHT22;251;48.704;9.210;2023-06-14T08:45:17;21.10;1.00
530;DHT22;251;48.704;9.210;2023-06-14T08:47:44;21.10;1.00
530;DHT22;251;48.704;9.210;2023-06-14T08:50:13;21.20;1.00
530;DHT22;251;48.704;9.210;2023-06-14T08:52:43;21.30;1.00
530;DHT22;251;48.704;9.210;2023-06-14T08:55:16;21.30;1.00
530;DHT22;251;48.704;9.210;2023-06-14T08:57:46;21.40;1.00
530;DHT22;251;48.704;9.210;2023-06-14T09:00:15;21.50;1.00
530;DHT22;251;48.704;9.210;2023-06-14T09:02:42;21.60;1.00
530;DHT22;251;48.704;9.210;2023-06-14T09:05:10;21.70;1.00
530;DHT22;251;48.704;9.210;2023-06-14T09:07:40;21.80;1.00
530;DHT22;251;48.704;9.210;2023-06-14T09:10:09;21.90;1.00
530;DHT22;251;48.704;9.210;2023-06-14T09:12:36;21.90;1.00
530;DHT22;251;48.704;9.210;2023-06-14T09:15:04;22.00;1.00
530;DHT22;251;48.704;9.210;2023-06-14T09:17:32;22.00;1.00
530;DHT22;251;48.704;9.210;2023-06-14T09:20:01;22.10;1.00
530;DHT22;251;48.704;9.210;2023-06-14T09:22:30;22.10;1.00
530;DHT22;251;48.704;9.210;2023-06-14T09:24:59;22.20;1.00
530;DHT22;251;48.704;9.210;2023-06-14T09:27:26;22.30;1.00
530;DHT22;251;48.704;9.210;2023-06-14T09:29:53;22.50;1.00
530;DHT22;251;48.704;9.210;2023-06-14T09:32:20;22.60;1.00
530;DHT22;251;48.704;9.210;2023-06-14T09:34:47;22.70;1.00
530;DHT22;251;48.704;9.210;2023-06-14T09:37:26;22.80;1.00
530;DHT22;251;48.704;9.210;2023-06-14T09:39:53;23.00;1.00
530;DHT22;251;48.704;9.210;2023-06-14T09:42:21;23.10;1.00
530;DHT22;251;48.704;9.210;2023-06-14T09:44:52;23.40;1.00
530;DHT22;251;48.704;9.210;2023-06-14T09:47:19;23.40;1.00
530;DHT22;251;48.704;9.210;2023-06-14T09:49:46;23.50;1.00
530;DHT22;251;48.704;9.210;2023-06-14T09:52:15;23.60;1.00
530;DHT22;251;48.704;9.210;2023-06-14T09:54:42;23.60;1.00
530;DHT22;251;48.704;9.210;2023-06-14T09:57:12;23.70;1.00
530;DHT22;251;48.704;9.210;2023-06-14T09:59:43;23.80;1.00
530;DHT22;251;48.704;9.210;2023-06-14T10:02:14;23.90;1.00
530;DHT22;251;48.704;9.210;2023-06-14T10:04:46;24.10;1.00
530;DHT22;251;48.704;9.210;2023-06-14T10:07:19;24.30;1.00
530;DHT22;251;48.704;9.210;2023-06-14T10:09:47;24.60;1.00
530;DHT22;251;48.704;9.210;2023-06-14T10:12:16;24.80;1.00
530;DHT22;251;48.704;9.210;2023-06-14T10:14:49;25.00;1.00
530;DHT22;251;48.704;9.210;2023-06-14T10:17:23;25.10;1.00
530;DHT22;251;48.704;9.210;2023-06-14T10:19:55;25.40;1.00
530;DHT22;251;48.704;9.210;2023-06-14T10:22:29;25.50;1.00
530;DHT22;251;48.704;9.210;2023-06-14T10:24:56;25.40;1.00
530;DHT22;251;48.704;9.210;2023-06-14T10:27:23;25.30;1.00
530;DHT22;251;48.704;9.210;2023-06-14T10:30:05;25.30;1.00
530;DHT22;251;48.704;9.210;2023-06-14T10:32:32;25.50;1.00
530;DHT22;251;48.704;9.210;2023-06-14T10:35:00;25.70;1.00
530;DHT22;251;48.704;9.210;2023-06-14T10:37:28;25.90;1.00
530;DHT22;251;48.704;9.210;2023-06-14T10:39:54;26.00;1.00
530;DHT22;251;48.704;9.210;2023-06-14T10:42:22;26.30;1.00
530;DHT22;251;48.704;9.210;2023-06-14T10:44:55;26.40;1.00
530;DHT22;251;48.704;9.210;2023-06-14T10:47:26;26.50;1.00
530;DHT22;251;48.704;9.210;2023-06-14T10:49:54;26.50;1.00
530;DHT22;251;48.704;9.210;2023-06-14T10:52:24;26.80;1.00
530;DHT22;251;48.704;9.210;2023-06-14T10:54:59;26.90;1.00
530;DHT22;251;48.704;9.210;2023-06-14T10:57:27;26.60;1.00
530;DHT22;251;48.704;9.210;2023-06-14T10:59:53;26.30;1.00
530;DHT22;251;48.704;9.210;2023-06-14T11:02:46;25.90;1.00
530;DHT22;251;48.704;9.210;2023-06-14T11:05:23;25.60;1.00
530;DHT22;251;48.704;9.210;2023-06-14T11:07:58;26.00;1.00
530;DHT22;251;48.704;9.210;2023-06-14T11:10:37;26.80;1.00
530;DHT22;251;48.704;9.210;2023-06-14T11:13:04;27.70;1.00
530;DHT22;251;48.704;9.210;2023-06-14T11:15:31;28.20;1.00
530;DHT22;251;48.704;9.210;2023-06-14T11:18:02;28.70;1.00
530;DHT22;251;48.704;9.210;2023-06-14T11:20:31;29.10;1.00
530;DHT22;251;48.704;9.210;2023-06-14T11:22:58;29.50;1.00
530;DHT22;251;48.704;9.210;2023-06-14T11:25:26;29.90;1.00
530;DHT22;251;48.704;9.210;2023-06-14T11:27:54;30.20;1.00
530;DHT22;251;48.704;9.210;2023-06-14T11:30:22;29.90;1.00
530;DHT22;251;48.704;9.210;2023-06-14T11:32:51;29.50;1.00
530;DHT22;251;48.704;9.210;2023-06-14T11:35:21;28.80;1.00
530;DHT22;251;48.704;9.210;2023-06-14T11:37:49;28.60;1.00
530;DHT22;251;48.704;9.210;2023-06-14T11:40:19;29.20;1.00
530;DHT22;251;48.704;9.210;2023-06-14T11:42:46;29.90;1.00
530;DHT22;251;48.704;9.210;2023-06-14T11:45:13;30.30;1.00
530;DHT22;251;48.704;9.210;2023-06-14T11:47:40;30.80;1.00
530;DHT22;251;48.704;9.210;2023-06-14T11:50:08;31.50;1.00
530;DHT22;251;48.704;9.210;2023-06-14T11:52:37;31.60;1.00
530;DHT22;251;48.704;9.210;2023-06-14T11:55:06;32.10;1.00
530;DHT22;251;48.704;9.210;2023-06-14T11:57:34;32.80;1.00
530;DHT22;251;48.704;9.210;2023-06-14T12:00:03;32.80;1.00
530;DHT22;251;48.704;9.210;2023-06-14T12:02:37;32.50;1.00
530;DHT22;251;48.704;9.210;2023-06-14T12:05:04;32.90;1.00
530;DHT22;251;48.704;9.210;2023-06-14T12:07:33;33.20;1.00
530;DHT22;251;48.704;9.210;2023-06-14T12:10:08;33.60;1.00
530;DHT22;251;48.704;9.210;2023-06-14T12:12:38;32.70;1.00
530;DHT22;251;48.704;9.210;2023-06-14T12:15:06;31.70;1.00
530;DHT22;251;48.704;9.210;2023-06-14T12:17:34;30.80;1.00
530;DHT22;251;48.704;9.210;2023-06-14T12:20:06;29.90;1.00
530;DHT22;251;48.704;9.210;2023-06-14T12:22:40;28.90;1.00
530;DHT22;251;48.704;9.210;2023-06-14T12:25:26;28.30;1.00
530;DHT22;251;48.704;9.210;2023-06-14T12:27:53;28.20;1.00
530;DHT22;251;48.704;9.210;2023-06-14T12:30:20;29.90;1.00
530;DHT22;251;48.704;9.210;2023-06-14T12:32:47;31.80;1.00
530;DHT22;251;48.704;9.210;2023-06-14T12:35:14;33.60;1.00
530;DHT22;251;48.704;9.210;2023-06-14T12:37:41;34.70;1.00
530;DHT22;251;48.704;9.210;2023-06-14T12:40:09;34.00;1.00
530;DHT22;251;48.704;9.210;2023-06-14T12:42:39;32.70;1.00
530;DHT22;251;48.704;9.210;2023-06-14T12:45:06;31.60;1.00
530;DHT22;251;48.704;9.210;2023-06-14T12:47:33;30.60;1.00
530;DHT22;251;48.704;9.210;2023-06-14T12:50:01;30.70;1.00
530;DHT22;251;48.704;9.210;2023-06-14T12:52:28;32.10;1.00
530;DHT22;251;48.704;9.210;2023-06-14T12:54:55;32.90;1.00
530;DHT22;251;48.704;9.210;2023-06-14T12:57:23;34.20;1.00
530;DHT22;251;48.704;9.210;2023-06-14T12:59:51;34.80;1.00
530;DHT22;251;48.704;9.210;2023-06-14T13:02:19;35.10;1.00
530;DHT22;251;48.704;9.210;2023-06-14T13:04:47;35.10;1.00
530;DHT22;251;48.704;9.210;2023-06-14T13:07:14;35.70;1.00
530;DHT22;251;48.704;9.210;2023-06-14T13:09:41;36.60;1.00
530;DHT22;251;48.704;9.210;2023-06-14T13:12:09;37.00;1.00
530;DHT22;251;48.704;9.210;2023-06-14T13:14:37;37.00;1.00
530;DHT22;251;48.704;9.210;2023-06-14T13:17:07;37.10;1.00
530;DHT22;251;48.704;9.210;2023-06-14T13:19:34;37.90;1.00
530;DHT22;251;48.704;9.210;2023-06-14T13:22:01;38.60;1.00
530;DHT22;251;48.704;9.210;2023-06-14T13:24:29;39.10;1.00
530;DHT22;251;48.704;9.210;2023-06-14T13:26:56;38.50;1.00
530;DHT22;251;48.704;9.210;2023-06-14T13:29:23;38.40;1.00
530;DHT22;251;48.704;9.210;2023-06-14T13:31:50;38.90;1.00
530;DHT22;251;48.704;9.210;2023-06-14T13:34:18;38.90;1.00
530;DHT22;251;48.704;9.210;2023-06-14T13:36:45;38.90;1.00
530;DHT22;251;48.704;9.210;2023-06-14T13:39:12;39.10;1.00
530;DHT22;251;48.704;9.210;2023-06-14T13:41:40;39.30;1.00
530;DHT22;251;48.704;9.210;2023-06-14T13:44:06;39.00;1.00
530;DHT22;251;48.704;9.210;2023-06-14T13:46:33;38.80;1.00
530;DHT22;251;48.704;9.210;2023-06-14T13:49:00;38.70;1.00
530;DHT22;251;48.704;9.210;2023-06-14T13:51:28;38.90;1.00
530;DHT22;251;48.704;9.210;2023-06-14T13:53:55;39.40;1.00
530;DHT22;251;48.704;9.210;2023-06-14T13:56:22;39.80;1.00
530;DHT22;251;48.704;9.210;2023-06-14T13:58:50;40.30;1.00
530;DHT22;251;48.704;9.210;2023-06-14T14:01:17;40.80;1.00
530;DHT22;251;48.704;9.210;2023-06-14T14:03:45;39.80;1.00
530;DHT22;251;48.704;9.210;2023-06-14T14:06:13;39.50;1.00
530;DHT22;251;48.704;9.210;2023-06-14T14:08:41;39.10;1.00
530;DHT22;251;48.704;9.210;2023-06-14T14:11:08;38.60;1.00
530;DHT22;251;48.704;9.210;2023-06-14T14:13:35;38.10;1.00
530;DHT22;251;48.704;9.210;2023-06-14T14:16:02;38.30;1.00
530;DHT22;251;48.704;9.210;2023-06-14T14:18:29;38.80;1.00
530;DHT22;251;48.704;9.210;2023-06-14T14:20:56;39.10;1.00
530;DHT22;251;48.704;9.210;2023-06-14T14:23:23;39.50;1.00
530;DHT22;251;48.704;9.210;2023-06-14T14:25:51;39.70;1.00
530;DHT22;251;48.704;9.210;2023-06-14T14:28:18;39.60;1.00
530;DHT22;251;48.704;9.210;2023-06-14T14:30:46;39.70;1.00
530;DHT22;251;48.704;9.210;2023-06-14T14:33:14;39.70;1.00
530;DHT22;251;48.704;9.210;2023-06-14T14:35:41;39.60;1.00
530;DHT22;251;48.704;9.210;2023-06-14T14:38:08;39.90;1.00
530;DHT22;251;48.704;9.210;2023-06-14T14:40:35;39.90;1.00
530;DHT22;251;48.704;9.210;2023-06-14T14:43:03;39.80;1.00
530;DHT22;251;48.704;9.210;2023-06-14T14:45:30;39.10;1.00
530;DHT22;251;48.704;9.210;2023-06-14T14:47:57;38.20;1.00
530;DHT22;251;48.704;9.210;2023-06-14T14:50:25;36.90;1.00
530;DHT22;251;48.704;9.210;2023-06-14T14:52:52;35.90;1.00
530;DHT22;251;48.704;9.210;2023-06-14T14:55:19;35.60;1.00
530;DHT22;251;48.704;9.210;2023-06-14T14:57:46;35.90;1.00
530;DHT22;251;48.704;9.210;2023-06-14T15:00:16;36.20;1.00
530;DHT22;251;48.704;9.210;2023-06-14T15:02:43;36.60;1.00
530;DHT22;251;48.704;9.210;2023-06-14T15:05:09;36.90;1.00
530;DHT22;251;48.704;9.210;2023-06-14T15:07:36;36.40;1.00
530;DHT22;251;48.704;9.210;2023-06-14T15:10:07;35.40;1.00
530;DHT22;251;48.704;9.210;2023-06-14T15:12:34;34.30;1.00
530;DHT22;251;48.704;9.210;2023-06-14T15:15:01;33.20;1.00
530;DHT22;251;48.704;9.210;2023-06-14T15:17:29;32.40;1.00
530;DHT22;251;48.704;9.210;2023-06-14T15:19:56;32.50;1.00
530;DHT22;251;48.704;9.210;2023-06-14T15:22:23;32.80;1.00
530;DHT22;251;48.704;9.210;2023-06-14T15:24:49;33.20;1.00
530;DHT22;251;48.704;9.210;2023-06-14T15:27:16;33.40;1.00
530;DHT22;251;48.704;9.210;2023-06-14T15:29:43;33.40;1.00
530;DHT22;251;48.704;9.210;2023-06-14T15:32:10;33.60;1.00
530;DHT22;251;48.704;9.210;2023-06-14T15:34:38;33.80;1.00
530;DHT22;251;48.704;9.210;2023-06-14T15:37:06;34.10;1.00
530;DHT22;251;48.704;9.210;2023-06-14T15:39:32;34.70;1.00
530;DHT22;251;48.704;9.210;2023-06-14T15:41:59;35.00;1.00
530;DHT22;251;48.704;9.210;2023-06-14T15:44:26;35.60;1.00
530;DHT22;251;48.704;9.210;2023-06-14T15:46:53;36.00;1.00
530;DHT22;251;48.704;9.210;2023-06-14T15:49:20;36.50;1.00
530;DHT22;251;48.704;9.210;2023-06-14T15:51:48;36.90;1.00
530;DHT22;251;48.704;9.210;2023-06-14T15:54:15;36.40;1.00
530;DHT22;251;48.704;9.210;2023-06-14T15:56:42;35.60;1.00
530;DHT22;251;48.704;9.210;2023-06-14T15:59:09;34.80;1.00
530;DHT22;251;48.704;9.210;2023-06-14T16:01:36;34.80;1.00
530;DHT22;251;48.704;9.210;2023-06-14T16:04:03;35.10;1.00
530;DHT22;251;48.704;9.210;2023-06-14T16:06:30;35.80;1.00
530;DHT22;251;48.704;9.210;2023-06-14T16:08:58;35.40;1.00
530;DHT22;251;48.704;9.210;2023-06-14T16:11:24;34.70;1.00
530;DHT22;251;48.704;9.210;2023-06-14T16:13:51;34.90;1.00
530;DHT22;251;48.704;9.210;2023-06-14T16:16:18;35.20;1.00
530;DHT22;251;48.704;9.210;2023-06-14T16:18:46;35.80;1.00
530;DHT22;251;48.704;9.210;2023-06-14T16:21:13;36.30;1.00
530;DHT22;251;48.704;9.210;2023-06-14T16:23:39;36.80;1.00
530;DHT22;251;48.704;9.210;2023-06-14T16:26:09;37.30;1.00
530;DHT22;251;48.704;9.210;2023-06-14T16:28:37;37.70;1.00
530;DHT22;251;48.704;9.210;2023-06-14T16:31:03;38.10;1.00
530;DHT22;251;48.704;9.210;2023-06-14T16:33:30;38.30;1.00
530;DHT22;251;48.704;9.210;2023-06-14T16:35:57;37.60;1.00
530;DHT22;251;48.704;9.210;2023-06-14T16:38:24;37.80;1.00
530;DHT22;251;48.704;9.210;2023-06-14T16:40:51;37.60;1.00
530;DHT22;251;48.704;9.210;2023-06-14T16:43:19;37.40;1.00
530;DHT22;251;48.704;9.210;2023-06-14T16:45:46;37.60;1.00
530;DHT22;251;48.704;9.210;2023-06-14T16:48:12;37.70;1.00
530;DHT22;251;48.704;9.210;2023-06-14T16:50:39;37.70;1.00
530;DHT22;251;48.704;9.210;2023-06-14T16:53:06;37.80;1.00
530;DHT22;251;48.704;9.210;2023-06-14T16:55:33;37.90;1.00